Terminal Aerodrome Forecast
Issued by NWS Jackson, KY

Home | Current Version | Previous Version | Text Only | Print | Product List | Glossary On
Versions: 1 2 3 4 5 6 7 8 9 10 11 12 13 14 15
000
FTUS43 KJKL 282331
TAFJKL
TAF
KJKL 282331Z 2900/2924 VRB03KT P6SM FEW100
     FM290400 00000KT 4SM BR FEW100
     FM290900 00000KT 1/2SM FG BKN002
     FM291300 VRB05KT P6SM BKN040=

USA.gov is the U.S. government's official web portal to all federal, state and local government web resources and services.